createdAt,value
2022-12-31T00:00:23.256Z,2.71
2022-12-31T00:01:11.183Z,2.77
2022-12-31T00:01:58.120Z,2.77
2022-12-31T00:02:45.196Z,2.71
2022-12-31T00:03:32.271Z,2.73
2022-12-31T00:04:19.178Z,2.73
2022-12-31T00:05:07.770Z,2.66
2022-12-31T00:05:54.651Z,2.51
2022-12-31T00:06:41.518Z,2.32
2022-12-31T00:07:28.426Z,2.36
2022-12-31T00:08:15.273Z,2.45
2022-12-31T00:09:04.900Z,2.39
2022-12-31T00:09:51.780Z,2.52
2022-12-31T00:10:41.833Z,2.44
2022-12-31T00:11:30.431Z,2.42
2022-12-31T00:12:17.309Z,2.33
2022-12-31T00:13:04.179Z,2.19
2022-12-31T00:13:51.605Z,2.22
2022-12-31T00:14:38.459Z,2.22
2022-12-31T00:15:25.356Z,2.06
2022-12-31T00:16:18.547Z,2.03
2022-12-31T00:17:05.511Z,2.07
2022-12-31T00:17:52.387Z,2.17
2022-12-31T00:18:39.294Z,2.14
2022-12-31T00:19:26.125Z,2.14
2022-12-31T00:20:12.991Z,2.20
2022-12-31T00:21:00.157Z,2.19
2022-12-31T00:21:47.024Z,2.08
2022-12-31T00:22:33.880Z,2.09
2022-12-31T00:23:20.699Z,2.13
2022-12-31T00:24:08.179Z,2.15
2022-12-31T00:24:55.043Z,2.15
2022-12-31T00:25:41.913Z,2.20
2022-12-31T00:26:31.695Z,2.13
2022-12-31T00:27:18.573Z,2.19
2022-12-31T00:28:05.623Z,2.19
2022-12-31T00:28:54.318Z,2.18
2022-12-31T00:29:41.249Z,2.21
2022-12-31T00:30:28.119Z,2.19
2022-12-31T00:31:26.101Z,2.25
2022-12-31T00:32:12.941Z,2.28
2022-12-31T00:32:59.871Z,2.23
2022-12-31T00:33:47.057Z,2.24
2022-12-31T00:34:34.129Z,2.29
2022-12-31T00:35:20.949Z,2.19
2022-12-31T00:36:14.490Z,2.13
2022-12-31T00:37:01.372Z,2.17
2022-12-31T00:37:48.199Z,2.20
2022-12-31T00:38:35.689Z,2.25
2022-12-31T00:39:22.530Z,2.25
2022-12-31T00:40:10.269Z,1.97
2022-12-31T00:40:57.430Z,1.98
2022-12-31T00:41:44.339Z,2.05
2022-12-31T00:42:31.182Z,2.09
2022-12-31T00:43:18.050Z,2.11
2022-12-31T00:44:05.119Z,2.06
2022-12-31T00:44:51.960Z,2.09
2022-12-31T00:45:38.909Z,2.13
2022-12-31T00:46:26.079Z,2.12
2022-12-31T00:47:12.997Z,2.07
2022-12-31T00:47:59.889Z,2.10
2022-12-31T00:48:47.290Z,2.09
2022-12-31T00:49:34.171Z,2.06
2022-12-31T00:50:21.096Z,2.01
2022-12-31T00:51:12.390Z,2.07
2022-12-31T00:51:59.268Z,1.98
2022-12-31T00:52:46.210Z,1.96
2022-12-31T00:53:33.129Z,1.96
2022-12-31T00:54:19.989Z,1.83
2022-12-31T00:55:07.542Z,1.78
2022-12-31T00:56:03.202Z,1.83
2022-12-31T00:56:50.068Z,1.88
2022-12-31T00:57:36.889Z,1.85
2022-12-31T00:58:23.779Z,1.67
2022-12-31T00:59:10.674Z,1.70
2022-12-31T00:59:57.519Z,1.65
2022-12-31T01:00:44.659Z,1.66
2022-12-31T01:01:34.380Z,1.59
2022-12-31T01:02:21.578Z,1.55
2022-12-31T01:03:08.783Z,1.63
2022-12-31T01:03:59.724Z,1.63
2022-12-31T01:04:46.578Z,1.50
2022-12-31T01:05:34.608Z,1.48
2022-12-31T01:06:22.302Z,1.54
2022-12-31T01:07:09.185Z,1.57
2022-12-31T01:07:56.040Z,1.57
2022-12-31T01:08:43.120Z,1.60
2022-12-31T01:09:29.999Z,1.41
2022-12-31T01:10:36.910Z,1.48
2022-12-31T01:11:24.786Z,1.50
2022-12-31T01:12:11.727Z,1.53
2022-12-31T01:12:59.778Z,1.51
2022-12-31T01:14:19.229Z,1.43
2022-12-31T01:15:06.696Z,1.52
2022-12-31T01:15:53.574Z,1.50
2022-12-31T01:16:43.225Z,1.43
2022-12-31T01:17:30.209Z,1.45
2022-12-31T01:18:17.082Z,1.42
2022-12-31T01:19:07.157Z,1.25
2022-12-31T01:19:54.014Z,1.25
2022-12-31T01:20:43.378Z,1.28
2022-12-31T01:21:30.828Z,1.36
2022-12-31T01:22:17.723Z,1.35
2022-12-31T01:23:05.049Z,1.20
2022-12-31T01:23:51.915Z,1.27
2022-12-31T01:24:38.853Z,1.23
2022-12-31T01:25:25.784Z,1.32
2022-12-31T01:26:14.379Z,1.38
2022-12-31T01:27:01.218Z,1.39
2022-12-31T01:27:48.059Z,1.37
2022-12-31T01:28:35.258Z,1.39
2022-12-31T01:29:22.108Z,1.40
2022-12-31T01:30:09.521Z,1.46
2022-12-31T01:30:56.601Z,1.47
2022-12-31T01:31:43.491Z,1.45
2022-12-31T01:32:30.389Z,1.04
2022-12-31T01:33:17.324Z,1.13
2022-12-31T01:34:04.769Z,1.07
2022-12-31T01:34:51.608Z,1.05
2022-12-31T01:35:38.513Z,1.09
2022-12-31T01:36:27.907Z,1.14
2022-12-31T01:37:14.737Z,1.25
2022-12-31T01:38:01.670Z,1.20
2022-12-31T01:38:48.768Z,1.12
2022-12-31T01:39:35.689Z,1.09
2022-12-31T01:40:22.574Z,1.04
2022-12-31T01:41:14.277Z,1.03
2022-12-31T01:42:01.169Z,0.88
2022-12-31T01:42:55.522Z,0.77
2022-12-31T01:43:57.257Z,0.79
2022-12-31T01:44:53.494Z,0.93
2022-12-31T01:45:41.999Z,1.02
2022-12-31T01:46:43.444Z,1.11
2022-12-31T01:47:51.768Z,1.08
2022-12-31T01:48:38.786Z,1.05
2022-12-31T01:49:37.934Z,0.81
2022-12-31T01:50:35.566Z,0.83
2022-12-31T01:51:23.268Z,0.78
2022-12-31T01:52:23.119Z,0.65
2022-12-31T01:53:10.472Z,0.63
2022-12-31T01:53:57.798Z,0.65
2022-12-31T01:54:49.369Z,0.76
2022-12-31T01:55:37.608Z,0.84
2022-12-31T01:56:24.836Z,0.86
2022-12-31T01:57:12.344Z,0.91
2022-12-31T01:58:06.997Z,0.73
2022-12-31T01:58:55.381Z,0.77
2022-12-31T01:59:42.788Z,0.69
2022-12-31T02:00:29.767Z,0.77
2022-12-31T02:01:26.555Z,0.75
2022-12-31T02:02:14.721Z,0.72
2022-12-31T02:03:01.807Z,0.78
2022-12-31T02:03:48.859Z,0.72
2022-12-31T02:04:35.709Z,0.67
2022-12-31T02:05:51.766Z,0.71
2022-12-31T02:06:43.469Z,0.74
2022-12-31T02:07:30.388Z,0.72
2022-12-31T02:08:17.978Z,0.67
2022-12-31T02:09:04.981Z,0.62
2022-12-31T02:09:52.267Z,0.57
2022-12-31T02:10:39.219Z,0.42
2022-12-31T02:11:36.670Z,0.47
2022-12-31T02:12:23.771Z,0.62
2022-12-31T02:13:10.669Z,0.72
2022-12-31T02:14:00.998Z,0.80
2022-12-31T02:14:51.185Z,0.91
2022-12-31T02:16:02.502Z,0.83
2022-12-31T02:17:00.410Z,1.06
2022-12-31T02:18:16.258Z,1.25
2022-12-31T02:19:24.499Z,1.41
2022-12-31T02:20:33.134Z,1.67
2022-12-31T02:21:29.992Z,1.77
2022-12-31T02:22:41.460Z,1.85
2022-12-31T02:23:31.378Z,2.03
2022-12-31T02:24:36.514Z,2.12
2022-12-31T02:25:50.675Z,2.47
2022-12-31T02:26:37.522Z,2.68
2022-12-31T02:27:30.478Z,2.73
2022-12-31T02:28:51.676Z,2.80
2022-12-31T02:29:57.185Z,2.84
2022-12-31T02:30:49.247Z,2.99
2022-12-31T02:31:48.272Z,3.08
2022-12-31T02:32:42.999Z,3.08
2022-12-31T02:33:33.637Z,3.18
2022-12-31T02:34:40.556Z,3.34
2022-12-31T02:35:42.147Z,3.34
2022-12-31T02:36:33.720Z,3.52
2022-12-31T02:37:21.804Z,3.70
2022-12-31T02:38:13.464Z,3.91
2022-12-31T02:39:01.018Z,4.00
2022-12-31T02:39:48.367Z,3.99
2022-12-31T02:40:37.349Z,4.02
2022-12-31T02:41:42.738Z,4.03
2022-12-31T02:42:29.638Z,4.16
2022-12-31T02:43:16.518Z,4.28
2022-12-31T02:44:20.947Z,4.43
2022-12-31T02:45:08.598Z,4.59
2022-12-31T02:46:13.765Z,4.70
2022-12-31T02:47:10.023Z,4.73
2022-12-31T02:48:22.020Z,4.90
2022-12-31T02:49:17.038Z,4.94
2022-12-31T02:50:06.690Z,5.00
2022-12-31T02:51:21.439Z,5.07
2022-12-31T02:52:45.314Z,5.10
2022-12-31T02:53:32.127Z,5.16
2022-12-31T02:54:40.857Z,5.19
2022-12-31T02:56:08.753Z,5.22
2022-12-31T02:57:24.689Z,5.29
2022-12-31T02:59:01.029Z,5.34
2022-12-31T03:00:14.265Z,5.35
2022-12-31T03:01:19.729Z,5.43
2022-12-31T03:02:16.410Z,5.45
2022-12-31T03:03:04.437Z,5.52
2022-12-31T03:04:11.319Z,5.52
2022-12-31T03:04:58.443Z,5.53
2022-12-31T03:05:46.079Z,5.54
2022-12-31T03:06:33.138Z,5.56
2022-12-31T03:07:25.966Z,5.60
2022-12-31T03:08:21.444Z,5.58
2022-12-31T03:09:14.077Z,5.62
2022-12-31T03:10:01.533Z,5.63
2022-12-31T03:10:48.377Z,5.65
2022-12-31T03:11:53.706Z,5.73
2022-12-31T03:12:47.217Z,5.72
2022-12-31T03:13:34.267Z,5.79
2022-12-31T03:14:21.143Z,5.81
2022-12-31T03:15:20.460Z,5.82
2022-12-31T03:16:07.568Z,5.85
2022-12-31T03:16:54.438Z,5.86
2022-12-31T03:17:41.301Z,5.88
2022-12-31T03:18:57.278Z,5.92
2022-12-31T03:20:02.600Z,5.95
2022-12-31T03:21:26.451Z,6.07
2022-12-31T03:22:28.737Z,6.08
2022-12-31T03:23:19.222Z,6.03
2022-12-31T03:24:25.112Z,6.06
2022-12-31T03:25:36.051Z,6.08
2022-12-31T03:26:22.898Z,6.12
2022-12-31T03:27:09.719Z,6.18
2022-12-31T03:27:56.898Z,6.19
2022-12-31T03:28:48.119Z,6.20
2022-12-31T03:29:35.075Z,6.21
2022-12-31T03:30:23.479Z,6.21
2022-12-31T03:31:10.427Z,6.23
2022-12-31T03:31:57.318Z,6.26
2022-12-31T03:32:45.177Z,6.29
2022-12-31T03:33:34.099Z,6.33
2022-12-31T03:34:20.926Z,6.31
2022-12-31T03:35:08.839Z,6.36
2022-12-31T03:35:55.807Z,6.39
2022-12-31T03:36:42.699Z,6.47
2022-12-31T03:37:29.547Z,6.50
2022-12-31T03:38:17.678Z,6.51
2022-12-31T03:39:04.500Z,6.58
2022-12-31T03:39:51.424Z,6.57
2022-12-31T03:40:40.874Z,6.60
2022-12-31T03:41:27.699Z,6.60
2022-12-31T03:42:14.586Z,6.60
2022-12-31T03:43:01.514Z,6.63
2022-12-31T03:43:48.386Z,6.70
2022-12-31T03:44:35.218Z,6.71
2022-12-31T03:45:22.187Z,6.74
2022-12-31T03:46:09.040Z,6.78
2022-12-31T03:46:55.881Z,6.77
2022-12-31T03:47:43.168Z,6.82
2022-12-31T03:48:30.386Z,6.86
2022-12-31T03:49:17.332Z,6.91
2022-12-31T03:50:05.558Z,6.93
2022-12-31T03:50:52.553Z,6.88
2022-12-31T03:51:39.411Z,6.92
2022-12-31T03:52:26.319Z,6.93
2022-12-31T03:53:13.387Z,6.92
2022-12-31T03:54:00.434Z,6.88
2022-12-31T03:54:47.338Z,6.86
2022-12-31T03:55:34.160Z,6.88
2022-12-31T03:56:20.988Z,6.87
2022-12-31T03:57:07.850Z,6.89
2022-12-31T03:57:54.670Z,6.92
2022-12-31T03:58:41.576Z,6.92
2022-12-31T03:59:28.434Z,6.87
2022-12-31T04:00:19.868Z,6.87
2022-12-31T04:01:06.892Z,6.83
2022-12-31T04:01:53.887Z,6.78
2022-12-31T04:02:42.100Z,6.78
2022-12-31T04:03:29.327Z,6.77
2022-12-31T04:04:16.147Z,6.75
2022-12-31T04:05:02.998Z,6.83
2022-12-31T04:05:54.356Z,6.83
2022-12-31T04:06:41.242Z,6.78
2022-12-31T04:07:28.138Z,6.84
2022-12-31T04:08:15.013Z,6.90
2022-12-31T04:09:01.870Z,6.80
2022-12-31T04:09:48.781Z,6.77
2022-12-31T04:10:35.696Z,6.71
2022-12-31T04:11:22.569Z,6.71
2022-12-31T04:12:09.491Z,6.71
2022-12-31T04:12:56.350Z,6.75
2022-12-31T04:13:43.189Z,6.75
2022-12-31T04:14:30.115Z,6.68
2022-12-31T04:15:20.148Z,6.65
2022-12-31T04:16:07.051Z,6.66
2022-12-31T04:16:54.026Z,6.59
2022-12-31T04:17:40.838Z,6.62
2022-12-31T04:18:27.744Z,6.64
2022-12-31T04:19:14.739Z,6.65
2022-12-31T04:20:01.698Z,6.59
2022-12-31T04:20:48.559Z,6.51
2022-12-31T04:21:35.495Z,6.49
2022-12-31T04:22:22.362Z,6.50
2022-12-31T04:23:09.228Z,6.56
2022-12-31T04:23:56.151Z,6.48
2022-12-31T04:24:43.526Z,6.49
2022-12-31T04:25:30.408Z,6.58
2022-12-31T04:26:17.437Z,6.53
2022-12-31T04:27:07.757Z,6.56
2022-12-31T04:27:54.794Z,6.54
2022-12-31T04:28:41.640Z,6.49
2022-12-31T04:29:28.569Z,6.60
2022-12-31T04:30:15.566Z,6.52
2022-12-31T04:31:04.440Z,6.48
2022-12-31T04:31:51.341Z,6.43
2022-12-31T04:32:38.564Z,6.42
2022-12-31T04:33:25.373Z,6.42
2022-12-31T04:34:12.245Z,6.43
2022-12-31T04:34:59.109Z,6.50
2022-12-31T04:35:45.996Z,6.56
2022-12-31T04:36:32.984Z,6.56
2022-12-31T04:37:19.892Z,6.59
2022-12-31T04:38:06.877Z,6.59
2022-12-31T04:38:53.815Z,6.58
2022-12-31T04:39:40.636Z,6.56
2022-12-31T04:40:27.530Z,6.55
2022-12-31T04:41:17.305Z,6.54
2022-12-31T04:42:04.220Z,6.50
2022-12-31T04:42:51.057Z,6.47
2022-12-31T04:43:37.889Z,6.53
2022-12-31T04:44:24.743Z,6.60
2022-12-31T04:45:11.776Z,6.58
2022-12-31T04:45:58.688Z,6.50
2022-12-31T04:46:45.549Z,6.52
2022-12-31T04:47:32.428Z,6.52
2022-12-31T04:48:19.370Z,6.47
2022-12-31T04:49:06.290Z,6.41
2022-12-31T04:49:53.173Z,6.36
2022-12-31T04:50:40.009Z,6.25
2022-12-31T04:51:28.598Z,6.16
2022-12-31T04:52:15.409Z,6.29
2022-12-31T04:53:02.295Z,6.27
2022-12-31T04:53:49.552Z,6.25
2022-12-31T04:54:36.356Z,6.23
2022-12-31T04:55:23.178Z,6.19
2022-12-31T04:56:10.578Z,6.17
2022-12-31T04:56:57.409Z,6.12
2022-12-31T04:57:44.369Z,6.10
2022-12-31T04:58:31.499Z,6.19
2022-12-31T04:59:18.330Z,6.18
2022-12-31T05:00:05.604Z,6.18
2022-12-31T05:00:55.679Z,6.24
2022-12-31T05:01:42.666Z,6.28
2022-12-31T05:02:30.490Z,6.32
2022-12-31T05:03:18.871Z,6.39
2022-12-31T05:04:06.307Z,6.47
2022-12-31T05:04:53.121Z,6.55
2022-12-31T05:05:40.019Z,6.60
2022-12-31T05:06:26.923Z,6.60
2022-12-31T05:07:13.808Z,6.68
2022-12-31T05:08:00.730Z,6.72
2022-12-31T05:08:49.040Z,6.77
2022-12-31T05:09:35.921Z,6.88
2022-12-31T05:10:23.628Z,6.95
2022-12-31T05:11:11.168Z,6.94
2022-12-31T05:11:58.239Z,6.91
2022-12-31T05:12:45.129Z,6.99
2022-12-31T05:13:33.506Z,7.00
2022-12-31T05:14:20.820Z,7.00
2022-12-31T05:15:08.377Z,6.99
2022-12-31T05:15:55.461Z,7.04
2022-12-31T05:16:42.397Z,7.19
2022-12-31T05:17:29.516Z,7.22
2022-12-31T05:18:16.479Z,7.28
2022-12-31T05:19:06.524Z,7.21
2022-12-31T05:19:53.349Z,7.11
2022-12-31T05:20:40.268Z,7.01
2022-12-31T05:21:27.221Z,7.02
2022-12-31T05:22:29.224Z,6.95
2022-12-31T05:23:16.736Z,7.02
2022-12-31T05:24:03.741Z,7.06
2022-12-31T05:24:52.463Z,7.15
2022-12-31T05:25:39.366Z,7.24
2022-12-31T05:26:26.455Z,7.28
2022-12-31T05:27:13.339Z,7.29
2022-12-31T05:28:00.214Z,7.33
2022-12-31T05:28:47.080Z,7.23
2022-12-31T05:29:34.060Z,7.20
2022-12-31T05:30:21.940Z,7.22
2022-12-31T05:31:08.840Z,7.29
2022-12-31T05:31:55.829Z,7.39
2022-12-31T05:32:42.639Z,7.45
2022-12-31T05:33:29.509Z,7.52
2022-12-31T05:34:16.399Z,7.54
2022-12-31T05:35:03.849Z,7.54
2022-12-31T05:35:50.763Z,7.54
2022-12-31T05:36:37.603Z,7.62
2022-12-31T05:37:24.492Z,7.62
2022-12-31T05:38:11.456Z,7.67
2022-12-31T05:38:58.320Z,7.65
2022-12-31T05:39:45.149Z,7.72
2022-12-31T05:40:32.262Z,7.70
2022-12-31T05:41:19.078Z,7.72
2022-12-31T05:42:06.019Z,7.86
2022-12-31T05:42:52.897Z,7.84
2022-12-31T05:43:39.758Z,7.81
2022-12-31T05:44:26.689Z,7.80
2022-12-31T05:45:13.770Z,7.57
2022-12-31T05:46:02.947Z,7.60
2022-12-31T05:46:49.842Z,7.63
2022-12-31T05:47:36.701Z,7.66
2022-12-31T05:48:23.580Z,7.58
2022-12-31T05:49:10.470Z,7.57
2022-12-31T05:49:57.302Z,7.49
2022-12-31T05:50:44.142Z,7.40
2022-12-31T05:51:30.980Z,7.24
2022-12-31T05:52:17.863Z,7.13
2022-12-31T05:53:04.704Z,6.99
2022-12-31T05:53:51.620Z,6.92
2022-12-31T05:54:38.477Z,6.98
2022-12-31T05:55:25.353Z,6.82
2022-12-31T05:56:12.298Z,6.82
2022-12-31T05:56:59.478Z,6.65
2022-12-31T05:57:46.440Z,6.65
2022-12-31T05:58:33.339Z,6.51
2022-12-31T05:59:20.424Z,6.42
2022-12-31T06:00:08.957Z,6.40
2022-12-31T06:00:55.929Z,6.12
2022-12-31T06:01:42.866Z,6.00
2022-12-31T06:02:29.692Z,5.93
2022-12-31T06:03:16.722Z,5.83
2022-12-31T06:04:03.822Z,5.76
2022-12-31T06:04:51.301Z,5.62
2022-12-31T06:05:42.965Z,5.52
2022-12-31T06:06:29.820Z,5.44
2022-12-31T06:07:16.778Z,5.40
2022-12-31T06:08:03.731Z,5.35
2022-12-31T06:08:51.473Z,5.46
2022-12-31T06:09:38.369Z,5.44
2022-12-31T06:10:25.284Z,5.17
2022-12-31T06:11:12.105Z,5.18
2022-12-31T06:11:58.967Z,5.25
2022-12-31T06:12:45.812Z,5.42
2022-12-31T06:13:32.688Z,5.51
2022-12-31T06:14:19.529Z,5.61
2022-12-31T06:15:07.246Z,5.70
2022-12-31T06:15:54.187Z,5.74
2022-12-31T06:16:41.662Z,5.81
2022-12-31T06:17:29.461Z,5.88
2022-12-31T06:18:16.258Z,5.90
2022-12-31T06:19:03.181Z,5.95
2022-12-31T06:19:50.038Z,6.10
2022-12-31T06:20:38.037Z,6.12
2022-12-31T06:21:24.899Z,6.09
2022-12-31T06:22:11.777Z,6.10
2022-12-31T06:22:58.690Z,6.21
2022-12-31T06:23:45.739Z,6.25
2022-12-31T06:24:32.629Z,6.28
2022-12-31T06:25:19.469Z,6.36
2022-12-31T06:26:07.246Z,6.40
2022-12-31T06:26:54.100Z,6.50
2022-12-31T06:27:40.942Z,6.59
2022-12-31T06:28:27.788Z,6.64
2022-12-31T06:29:14.719Z,6.67
2022-12-31T06:30:01.583Z,6.71
2022-12-31T06:30:48.642Z,6.73
2022-12-31T06:31:35.617Z,6.75
2022-12-31T06:32:22.439Z,6.73
2022-12-31T06:33:09.291Z,6.86
2022-12-31T06:33:56.130Z,6.93
2022-12-31T06:34:43.025Z,6.91
2022-12-31T06:35:29.927Z,6.90
2022-12-31T06:36:17.131Z,6.89
2022-12-31T06:37:04.049Z,6.90
2022-12-31T06:37:52.203Z,6.91
2022-12-31T06:38:43.528Z,6.90
2022-12-31T06:39:30.438Z,6.91
2022-12-31T06:40:17.315Z,6.94
2022-12-31T06:41:08.322Z,6.93
2022-12-31T06:41:55.269Z,6.96
2022-12-31T06:42:42.896Z,6.97
2022-12-31T06:43:29.754Z,7.04
2022-12-31T06:44:16.735Z,7.09
2022-12-31T06:45:03.808Z,7.07
2022-12-31T06:45:50.651Z,7.03
2022-12-31T06:46:37.493Z,7.04
2022-12-31T06:47:25.102Z,7.07
2022-12-31T06:48:12.120Z,7.09
2022-12-31T06:48:58.937Z,6.97
2022-12-31T06:49:45.741Z,6.94
2022-12-31T06:50:32.606Z,6.87
2022-12-31T06:51:21.111Z,6.86
2022-12-31T06:52:08.539Z,6.93
2022-12-31T06:52:55.491Z,6.84
2022-12-31T06:53:42.345Z,6.80
2022-12-31T06:54:29.146Z,6.86
2022-12-31T06:55:16.449Z,6.86
2022-12-31T06:56:14.373Z,6.73
2022-12-31T06:57:01.441Z,6.75
2022-12-31T06:57:48.611Z,6.64
2022-12-31T06:58:35.882Z,6.61
2022-12-31T06:59:25.509Z,6.62
2022-12-31T07:00:13.091Z,6.66
2022-12-31T07:01:58.022Z,6.65
2022-12-31T07:02:56.941Z,6.67
2022-12-31T07:04:02.570Z,6.73
2022-12-31T07:05:04.374Z,6.82
2022-12-31T07:06:01.974Z,6.84
2022-12-31T07:07:10.292Z,6.77
2022-12-31T07:08:19.341Z,6.58
2022-12-31T07:09:11.309Z,6.60
2022-12-31T07:10:30.023Z,6.46
2022-12-31T07:11:27.294Z,6.59
2022-12-31T07:12:36.839Z,6.73
2022-12-31T07:13:43.859Z,6.78
2022-12-31T07:14:43.257Z,6.80
2022-12-31T07:15:54.672Z,6.71
2022-12-31T07:17:04.352Z,6.66
2022-12-31T07:18:03.771Z,6.73
2022-12-31T07:19:18.183Z,6.80
2022-12-31T07:20:11.126Z,6.71
2022-12-31T07:20:58.307Z,6.69
2022-12-31T07:21:45.568Z,6.85
2022-12-31T07:22:32.613Z,6.92
2022-12-31T07:23:19.771Z,6.90
2022-12-31T07:24:08.540Z,6.92
2022-12-31T07:24:55.881Z,6.89
2022-12-31T07:25:51.929Z,6.95
2022-12-31T07:27:13.124Z,6.94
2022-12-31T07:28:06.392Z,6.99
2022-12-31T07:29:08.991Z,7.01
2022-12-31T07:30:00.248Z,6.94
2022-12-31T07:30:59.377Z,6.90
2022-12-31T07:32:01.161Z,6.71
2022-12-31T07:33:44.740Z,6.68
2022-12-31T07:34:55.889Z,6.70
2022-12-31T07:35:48.904Z,6.82
2022-12-31T07:36:49.953Z,6.82
2022-12-31T07:37:58.331Z,7.01
2022-12-31T07:39:01.978Z,7.26
2022-12-31T07:40:01.705Z,7.38
2022-12-31T07:41:21.232Z,7.55
2022-12-31T07:42:27.610Z,7.70
2022-12-31T07:43:23.038Z,7.81
2022-12-31T07:44:48.280Z,7.87
2022-12-31T07:46:12.043Z,8.00
2022-12-31T07:47:05.252Z,8.15
2022-12-31T07:47:55.255Z,8.28
2022-12-31T07:48:44.644Z,8.39
2022-12-31T07:49:32.760Z,8.41
2022-12-31T07:50:20.061Z,8.52
2022-12-31T07:51:09.820Z,8.59
2022-12-31T07:51:56.924Z,8.62
2022-12-31T07:52:44.331Z,8.63
2022-12-31T07:53:31.418Z,8.65
2022-12-31T07:54:18.369Z,8.61
2022-12-31T07:55:05.776Z,8.64
2022-12-31T07:55:58.799Z,8.63
2022-12-31T07:56:46.251Z,8.66
2022-12-31T07:57:58.050Z,8.64
2022-12-31T07:59:03.095Z,8.68
2022-12-31T07:59:52.888Z,8.68
2022-12-31T08:00:39.995Z,8.60
2022-12-31T08:01:35.788Z,8.56
2022-12-31T08:02:32.873Z,8.62
2022-12-31T08:04:03.614Z,8.62
2022-12-31T08:05:11.323Z,8.69
2022-12-31T08:06:15.861Z,8.83
2022-12-31T08:07:21.138Z,8.87
2022-12-31T08:08:38.259Z,8.83
2022-12-31T08:09:58.468Z,8.82
2022-12-31T08:11:00.151Z,8.95
2022-12-31T08:11:58.693Z,8.90
2022-12-31T08:12:47.569Z,8.93
2022-12-31T08:13:34.566Z,9.01
2022-12-31T08:14:21.669Z,8.99
2022-12-31T08:15:18.171Z,8.99
2022-12-31T08:16:05.460Z,9.04
2022-12-31T08:16:52.999Z,9.10
2022-12-31T08:17:40.047Z,9.18
2022-12-31T08:18:27.099Z,9.27
2022-12-31T08:19:23.926Z,9.27
2022-12-31T08:20:18.236Z,9.28
2022-12-31T08:21:46.676Z,9.30
2022-12-31T08:23:12.387Z,9.35
2022-12-31T08:24:15.022Z,9.35
2022-12-31T08:25:15.062Z,9.35
2022-12-31T08:26:32.921Z,9.42
2022-12-31T08:27:28.515Z,9.50
2022-12-31T08:28:26.344Z,9.49
2022-12-31T08:29:22.968Z,9.55
2022-12-31T08:30:13.055Z,9.59
2022-12-31T08:31:10.784Z,9.65
2022-12-31T08:31:57.669Z,9.75
2022-12-31T08:32:44.488Z,9.70
2022-12-31T08:34:09.130Z,9.72
2022-12-31T08:35:03.765Z,9.80
2022-12-31T08:36:15.126Z,9.78
2022-12-31T08:37:09.200Z,9.78
2022-12-31T08:38:35.650Z,9.85
2022-12-31T08:39:50.018Z,9.93
2022-12-31T08:40:49.035Z,10.11
2022-12-31T08:41:43.493Z,10.15
2022-12-31T08:42:48.151Z,10.12
2022-12-31T08:43:40.980Z,10.12
2022-12-31T08:44:40.001Z,10.21
2022-12-31T08:45:37.978Z,10.13
2022-12-31T08:46:49.408Z,10.20
2022-12-31T08:48:01.432Z,10.20
2022-12-31T08:48:48.649Z,10.22
2022-12-31T08:49:36.092Z,10.31
2022-12-31T08:50:23.469Z,10.37
2022-12-31T08:51:23.485Z,10.26
2022-12-31T08:52:19.356Z,10.34
2022-12-31T08:53:06.668Z,10.41
2022-12-31T08:53:55.445Z,10.34
2022-12-31T08:54:42.586Z,10.30
2022-12-31T08:55:29.861Z,10.36
2022-12-31T08:56:28.627Z,10.33
2022-12-31T08:57:15.852Z,10.40
2022-12-31T08:58:20.823Z,10.49
2022-12-31T08:59:19.920Z,10.58
2022-12-31T09:00:18.059Z,10.66
2022-12-31T09:01:06.435Z,10.62
2022-12-31T09:02:08.346Z,10.66
2022-12-31T09:03:26.438Z,10.68
2022-12-31T09:04:35.009Z,10.66
2022-12-31T09:05:31.029Z,10.67
2022-12-31T09:06:19.664Z,10.66
2022-12-31T09:07:06.766Z,10.70
2022-12-31T09:08:24.460Z,10.69
2022-12-31T09:09:21.039Z,10.59
2022-12-31T09:10:22.932Z,10.60
2022-12-31T09:11:23.166Z,10.70
2022-12-31T09:12:19.209Z,10.82
2022-12-31T09:13:15.020Z,11.00
2022-12-31T09:14:23.724Z,11.03
2022-12-31T09:15:31.071Z,11.07
2022-12-31T09:16:41.775Z,11.09
2022-12-31T09:17:34.549Z,11.02
2022-12-31T09:18:21.667Z,11.13
2022-12-31T09:19:10.516Z,11.21
2022-12-31T09:19:57.716Z,11.20
2022-12-31T09:20:45.065Z,11.21
2022-12-31T09:21:32.673Z,11.30
2022-12-31T09:22:19.841Z,11.33
2022-12-31T09:23:07.214Z,11.26
2022-12-31T09:23:54.445Z,11.26
2022-12-31T09:24:41.572Z,11.21
2022-12-31T09:25:29.369Z,11.16
2022-12-31T09:26:37.407Z,11.24
2022-12-31T09:28:09.250Z,11.22
2022-12-31T09:29:18.682Z,11.18
2022-12-31T09:30:13.650Z,11.12
2022-12-31T09:31:12.196Z,11.16
2022-12-31T09:32:01.995Z,11.19
2022-12-31T09:33:05.740Z,11.27
2022-12-31T09:33:55.393Z,11.35
2022-12-31T09:34:55.700Z,11.31
2022-12-31T09:35:49.920Z,11.34
2022-12-31T09:36:39.969Z,11.30
2022-12-31T09:37:38.867Z,11.27
2022-12-31T09:38:33.650Z,11.31
2022-12-31T09:39:42.509Z,11.35
2022-12-31T09:40:29.326Z,11.39
2022-12-31T09:41:32.821Z,11.25
2022-12-31T09:42:46.578Z,11.29
2022-12-31T09:43:45.100Z,11.31
2022-12-31T09:45:05.841Z,11.36
2022-12-31T09:46:08.811Z,11.49
2022-12-31T09:47:17.470Z,11.44
2022-12-31T09:48:31.226Z,11.35
2022-12-31T09:50:04.888Z,11.41
2022-12-31T09:51:07.764Z,11.43
2022-12-31T09:52:00.519Z,11.51
2022-12-31T09:53:13.546Z,11.50
2022-12-31T09:54:20.226Z,11.45
2022-12-31T09:55:34.350Z,11.50
2022-12-31T09:56:27.399Z,11.43
2022-12-31T09:57:30.881Z,11.21
2022-12-31T09:58:26.320Z,11.33
2022-12-31T09:59:21.792Z,11.38
2022-12-31T10:00:11.769Z,11.37
2022-12-31T10:01:17.315Z,11.37
2022-12-31T10:02:29.150Z,11.37
2022-12-31T10:03:41.052Z,11.52
2022-12-31T10:04:38.640Z,11.50
2022-12-31T10:05:50.940Z,11.36
2022-12-31T10:07:15.331Z,11.38
2022-12-31T10:08:31.772Z,11.48
2022-12-31T10:09:57.939Z,11.39
2022-12-31T10:10:58.043Z,11.41
2022-12-31T10:12:26.980Z,11.36
2022-12-31T10:13:16.703Z,11.37
2022-12-31T10:14:42.411Z,11.26
2022-12-31T10:15:33.958Z,11.29
2022-12-31T10:16:32.892Z,11.31
2022-12-31T10:17:36.742Z,11.42
2022-12-31T10:18:32.311Z,11.43
2022-12-31T10:19:19.129Z,11.41
2022-12-31T10:20:12.051Z,11.51
2022-12-31T10:21:23.755Z,11.39
2022-12-31T10:22:32.595Z,11.48
2022-12-31T10:23:56.503Z,11.32
2022-12-31T10:25:05.773Z,11.37
2022-12-31T10:26:16.828Z,11.37
2022-12-31T10:27:22.225Z,11.50
2022-12-31T10:28:26.662Z,11.48
2022-12-31T10:29:27.102Z,11.47
2022-12-31T10:30:18.039Z,11.57
2022-12-31T10:31:23.705Z,11.45
2022-12-31T10:32:23.746Z,11.45
2022-12-31T10:33:18.427Z,11.56
2022-12-31T10:34:16.121Z,11.56
2022-12-31T10:35:27.981Z,11.54
2022-12-31T10:36:17.689Z,11.58
2022-12-31T10:37:10.984Z,11.58
2022-12-31T10:38:19.069Z,11.63
2022-12-31T10:39:24.823Z,11.61
2022-12-31T10:40:23.826Z,11.64
2022-12-31T10:41:16.869Z,11.69
2022-12-31T10:42:03.689Z,11.70
2022-12-31T10:42:59.479Z,11.68
2022-12-31T10:44:05.291Z,11.83
2022-12-31T10:45:10.951Z,11.90
2022-12-31T10:46:47.491Z,11.91
2022-12-31T10:48:06.460Z,11.85
2022-12-31T10:49:05.391Z,11.95
2022-12-31T10:50:00.981Z,11.98
2022-12-31T10:51:00.118Z,12.05
2022-12-31T10:51:54.027Z,12.19
2022-12-31T10:53:08.647Z,12.23
2022-12-31T10:54:07.859Z,12.28
2022-12-31T10:55:13.005Z,12.22
2022-12-31T10:56:48.169Z,12.19
2022-12-31T10:57:47.059Z,12.10
2022-12-31T10:59:11.881Z,12.13
2022-12-31T11:00:10.436Z,12.15
2022-12-31T11:01:12.229Z,12.18
2022-12-31T11:02:05.178Z,12.19
2022-12-31T11:03:10.033Z,12.23
2022-12-31T11:04:30.387Z,12.23
2022-12-31T11:05:41.878Z,12.22
2022-12-31T11:06:47.780Z,12.33
2022-12-31T11:07:54.840Z,12.27
2022-12-31T11:08:59.577Z,12.18
2022-12-31T11:10:04.609Z,12.17
2022-12-31T11:11:00.709Z,12.15
2022-12-31T11:11:58.537Z,12.08
2022-12-31T11:12:57.440Z,12.14
2022-12-31T11:14:06.035Z,12.21
2022-12-31T11:15:29.895Z,12.27
2022-12-31T11:16:22.632Z,12.13
2022-12-31T11:17:21.929Z,12.15
2022-12-31T11:18:23.805Z,12.11
2022-12-31T11:19:35.660Z,12.14
2022-12-31T11:20:39.719Z,11.97
2022-12-31T11:21:50.682Z,12.01
2022-12-31T11:22:55.872Z,12.07
2022-12-31T11:23:57.621Z,12.07
2022-12-31T11:25:03.160Z,12.12
2022-12-31T11:25:53.059Z,12.13
2022-12-31T11:27:03.905Z,12.18
2022-12-31T11:27:59.858Z,12.19
2022-12-31T11:29:24.460Z,12.30
2022-12-31T11:30:19.593Z,12.25
2022-12-31T11:31:23.965Z,12.13
2022-12-31T11:32:36.919Z,12.19
2022-12-31T11:33:51.768Z,12.32
2022-12-31T11:34:38.594Z,12.18
2022-12-31T11:35:43.774Z,12.26
2022-12-31T11:36:40.864Z,12.39
2022-12-31T11:38:09.984Z,12.41
2022-12-31T11:39:31.654Z,12.40
2022-12-31T11:40:42.373Z,12.55
2022-12-31T11:41:54.919Z,12.42
2022-12-31T11:43:10.308Z,12.48
2022-12-31T11:44:16.653Z,12.46
2022-12-31T11:45:27.422Z,12.55
2022-12-31T11:46:17.010Z,12.56
2022-12-31T11:47:21.689Z,12.38
2022-12-31T11:48:30.225Z,12.47
2022-12-31T11:49:49.539Z,12.52
2022-12-31T11:50:49.863Z,12.67
2022-12-31T11:51:51.806Z,12.68
2022-12-31T11:53:00.008Z,12.64
2022-12-31T11:53:58.679Z,12.74